RYR2CL LIME-EBCI
Flight info
| Callsign | RYR2CL |
|---|---|
| Flight time | 1h 7m |
| Altitude | 18000 |
| Route | PEPAG N851 ABESI/N0436F360 N851 UTAVO DCT ROLSA/N0435F350 DCT LOKTA DCT TEDGO/N0438F360 L608 MISGI Z104 ODVUX/N0381F280 Z104 GESLO N852 LNO |
| Aircraft | B738/M-SDE3FGILRWY/SB1 |
Departure
| Time | 2026-04-29 13:17 |
|---|---|
| Airport | Il Caravaggio International Airport (LIME) |
Arrival
| Time | 2026-04-29 14:25 |
|---|---|
| Airport | Brussels South Charleroi Airport (EBCI) |
| Time | Latitude | Longitude | Altitude | Speed | Heading |
|---|---|---|---|---|---|
| 2026-04-29 12:51 | 45.66684 | 9.69800 | 786 ft | 0 kts | 195° |
| 2026-04-29 13:08 | 45.66685 | 9.69801 | 786 ft | 2 kts | 195° |
| 2026-04-29 13:08 | 45.66709 | 9.69809 | 786 ft | 4 kts | 193° |
| 2026-04-29 13:08 | 45.66733 | 9.69818 | 786 ft | 2 kts | 196° |
| 2026-04-29 13:08 | 45.66755 | 9.69831 | 786 ft | 4 kts | 225° |
| 2026-04-29 13:09 | 45.66766 | 9.69862 | 786 ft | 4 kts | 271° |
| 2026-04-29 13:09 | 45.66763 | 9.69888 | 786 ft | 0 kts | 285° |
| 2026-04-29 13:11 | 45.66759 | 9.69872 | 786 ft | 2 kts | 213° |
| 2026-04-29 13:12 | 45.66751 | 9.69895 | 786 ft | 4 kts | 96° |
| 2026-04-29 13:12 | 45.66747 | 9.69952 | 786 ft | 8 kts | 97° |
| 2026-04-29 13:12 | 45.66733 | 9.70043 | 786 ft | 11 kts | 104° |
| 2026-04-29 13:12 | 45.66711 | 9.70170 | 786 ft | 15 kts | 104° |
| 2026-04-29 13:13 | 45.66682 | 9.70330 | 786 ft | 18 kts | 104° |
| 2026-04-29 13:13 | 45.66647 | 9.70520 | 786 ft | 21 kts | 105° |
| 2026-04-29 13:13 | 45.66606 | 9.70738 | 786 ft | 24 kts | 105° |
| 2026-04-29 13:13 | 45.66562 | 9.70976 | 786 ft | 25 kts | 105° |
| 2026-04-29 13:14 | 45.66507 | 9.71201 | 786 ft | 23 kts | 110° |
| 2026-04-29 13:14 | 45.66464 | 9.71418 | 786 ft | 22 kts | 105° |
| 2026-04-29 13:14 | 45.66437 | 9.71586 | 786 ft | 14 kts | 92° |
| 2026-04-29 13:14 | 45.66457 | 9.71720 | 786 ft | 13 kts | 74° |
| 2026-04-29 13:15 | 45.66471 | 9.71848 | 786 ft | 13 kts | 95° |
| 2026-04-29 13:15 | 45.66459 | 9.71931 | 786 ft | 13 kts | 103° |
| 2026-04-29 13:15 | 45.66438 | 9.72053 | 786 ft | 13 kts | 104° |
| 2026-04-29 13:15 | 45.66413 | 9.72188 | 786 ft | 15 kts | 104° |
| 2026-04-29 13:16 | 45.66384 | 9.72349 | 786 ft | 18 kts | 104° |
| 2026-04-29 13:16 | 45.66380 | 9.72498 | 786 ft | 15 kts | 78° |
| 2026-04-29 13:16 | 45.66426 | 9.72578 | 786 ft | 11 kts | 340° |
| 2026-04-29 13:16 | 45.66456 | 9.72465 | 786 ft | 17 kts | 285° |
| 2026-04-29 13:17 | 45.66538 | 9.72016 | 786 ft | 83 kts | 285° |
| 2026-04-29 13:17 | 45.66744 | 9.70908 | 786 ft | 146 kts | 285° |
| 2026-04-29 13:17 | 45.67046 | 9.69334 | 1159 ft | 167 kts | 284° |
| 2026-04-29 13:17 | 45.67201 | 9.67709 | 1963 ft | 169 kts | 261° |
| 2026-04-29 13:18 | 45.66667 | 9.66225 | 2754 ft | 169 kts | 223° |
| 2026-04-29 13:18 | 45.65833 | 9.65018 | 3850 ft | 174 kts | 224° |
| 2026-04-29 13:18 | 45.64981 | 9.63769 | 4855 ft | 181 kts | 225° |
| 2026-04-29 13:18 | 45.64024 | 9.62368 | 5271 ft | 209 kts | 225° |
| 2026-04-29 13:19 | 45.62992 | 9.60854 | 5810 ft | 216 kts | 225° |
| 2026-04-29 13:19 | 45.61835 | 9.59502 | 6471 ft | 213 kts | 202° |
| 2026-04-29 13:19 | 45.60405 | 9.59235 | 7211 ft | 210 kts | 169° |
| 2026-04-29 13:19 | 45.59112 | 9.60174 | 7729 ft | 214 kts | 134° |
| 2026-04-29 13:20 | 45.58409 | 9.62021 | 8223 ft | 218 kts | 100° |
| 2026-04-29 13:20 | 45.58565 | 9.64229 | 8426 ft | 236 kts | 64° |
| 2026-04-29 13:20 | 45.59644 | 9.66017 | 8947 ft | 244 kts | 30° |
| 2026-04-29 13:20 | 45.61243 | 9.66676 | 9752 ft | 242 kts | 356° |
| 2026-04-29 13:21 | 45.62807 | 9.65930 | 10474 ft | 240 kts | 321° |
| 2026-04-29 13:21 | 45.63993 | 9.64257 | 11006 ft | 251 kts | 311° |
| 2026-04-29 13:21 | 45.65193 | 9.62257 | 11208 ft | 279 kts | 310° |
| 2026-04-29 13:21 | 45.66500 | 9.60030 | 11462 ft | 307 kts | 310° |
| 2026-04-29 13:22 | 45.67937 | 9.57588 | 11708 ft | 333 kts | 310° |
| 2026-04-29 13:22 | 45.69457 | 9.55030 | 12332 ft | 341 kts | 310° |
| 2026-04-29 13:22 | 45.71011 | 9.52442 | 13124 ft | 344 kts | 310° |
| 2026-04-29 13:22 | 45.72579 | 9.49845 | 13936 ft | 346 kts | 311° |
| 2026-04-29 13:23 | 45.74161 | 9.47235 | 14629 ft | 349 kts | 310° |
| 2026-04-29 13:23 | 45.75757 | 9.44606 | 15319 ft | 352 kts | 310° |
| 2026-04-29 13:23 | 45.77371 | 9.41948 | 16020 ft | 355 kts | 310° |
| 2026-04-29 13:23 | 45.79001 | 9.39263 | 16764 ft | 357 kts | 310° |
| 2026-04-29 13:24 | 45.80629 | 9.36581 | 17522 ft | 359 kts | 310° |
| 2026-04-29 13:24 | 45.82275 | 9.33865 | 18220 ft | 362 kts | 310° |
| 2026-04-29 13:24 | 45.83933 | 9.31126 | 18826 ft | 365 kts | 310° |
| 2026-04-29 13:24 | 45.85606 | 9.28361 | 19420 ft | 368 kts | 310° |
| 2026-04-29 13:25 | 45.87286 | 9.25581 | 20032 ft | 371 kts | 310° |
| 2026-04-29 13:25 | 45.90683 | 9.19953 | 21242 ft | 375 kts | 310° |
| 2026-04-29 13:25 | 45.92399 | 9.17106 | 21817 ft | 378 kts | 310° |
| 2026-04-29 13:26 | 45.94129 | 9.14232 | 22381 ft | 382 kts | 310° |
| 2026-04-29 13:26 | 45.95872 | 9.11339 | 22908 ft | 385 kts | 311° |
| 2026-04-29 13:26 | 45.97899 | 9.08789 | 23384 ft | 392 kts | 326° |
| 2026-04-29 13:26 | 46.00357 | 9.07058 | 23916 ft | 396 kts | 339° |
| 2026-04-29 13:27 | 46.03057 | 9.06210 | 24422 ft | 400 kts | 350° |
| 2026-04-29 13:27 | 46.05829 | 9.05805 | 24911 ft | 402 kts | 351° |
| 2026-04-29 13:27 | 46.08623 | 9.05426 | 25337 ft | 404 kts | 351° |
| 2026-04-29 13:27 | 46.11428 | 9.05014 | 25784 ft | 406 kts | 350° |
| 2026-04-29 13:28 | 46.14245 | 9.04567 | 26214 ft | 408 kts | 350° |
| 2026-04-29 13:28 | 46.17077 | 9.04112 | 26638 ft | 411 kts | 350° |
| 2026-04-29 13:28 | 46.19931 | 9.03709 | 27081 ft | 413 kts | 351° |
| 2026-04-29 13:28 | 46.22799 | 9.03334 | 27529 ft | 415 kts | 351° |
| 2026-04-29 13:29 | 46.25679 | 9.02963 | 27974 ft | 416 kts | 351° |
| 2026-04-29 13:29 | 46.28567 | 9.02587 | 28387 ft | 418 kts | 351° |
| 2026-04-29 13:29 | 46.31470 | 9.02203 | 28766 ft | 420 kts | 350° |
| 2026-04-29 13:29 | 46.34392 | 9.01812 | 29069 ft | 423 kts | 350° |
| 2026-04-29 13:30 | 46.37325 | 9.01418 | 29397 ft | 425 kts | 350° |
| 2026-04-29 13:30 | 46.40272 | 9.01022 | 29791 ft | 426 kts | 350° |
| 2026-04-29 13:30 | 46.43229 | 9.00624 | 30137 ft | 428 kts | 350° |
| 2026-04-29 13:30 | 46.46201 | 9.00224 | 30355 ft | 430 kts | 350° |
| 2026-04-29 13:31 | 46.49187 | 8.99821 | 30661 ft | 431 kts | 350° |
| 2026-04-29 13:31 | 46.52165 | 8.99421 | 31089 ft | 429 kts | 350° |
| 2026-04-29 13:31 | 46.55130 | 8.99023 | 31547 ft | 426 kts | 350° |
| 2026-04-29 13:31 | 46.58078 | 8.98627 | 31935 ft | 426 kts | 350° |
| 2026-04-29 13:32 | 46.61027 | 8.98226 | 32111 ft | 427 kts | 350° |
| 2026-04-29 13:32 | 46.63984 | 8.97826 | 32472 ft | 426 kts | 350° |
| 2026-04-29 13:32 | 46.66928 | 8.97429 | 32914 ft | 423 kts | 350° |
| 2026-04-29 13:32 | 46.69848 | 8.97034 | 33356 ft | 420 kts | 350° |
| 2026-04-29 13:33 | 46.72759 | 8.96639 | 33661 ft | 421 kts | 350° |
| 2026-04-29 13:33 | 46.75684 | 8.96239 | 33906 ft | 423 kts | 350° |
| 2026-04-29 13:33 | 46.78612 | 8.95839 | 34233 ft | 422 kts | 350° |
| 2026-04-29 13:33 | 46.81532 | 8.95443 | 34614 ft | 420 kts | 350° |
| 2026-04-29 13:34 | 46.84444 | 8.95046 | 34940 ft | 420 kts | 350° |
| 2026-04-29 13:34 | 46.87350 | 8.94650 | 35288 ft | 419 kts | 350° |
| 2026-04-29 13:34 | 46.90254 | 8.94252 | 35526 ft | 420 kts | 350° |
| 2026-04-29 13:34 | 46.93166 | 8.93853 | 35766 ft | 420 kts | 350° |
| 2026-04-29 13:35 | 46.96073 | 8.93455 | 36035 ft | 419 kts | 350° |
| 2026-04-29 13:35 | 46.98973 | 8.93058 | 36348 ft | 418 kts | 350° |
| 2026-04-29 13:35 | 47.01859 | 8.92662 | 36652 ft | 416 kts | 350° |
| 2026-04-29 13:35 | 47.04745 | 8.92265 | 36837 ft | 418 kts | 350° |
| 2026-04-29 13:36 | 47.07653 | 8.91863 | 36945 ft | 421 kts | 350° |
| 2026-04-29 13:36 | 47.10531 | 8.91466 | 37160 ft | 421 kts | 350° |
| 2026-04-29 13:36 | 47.13447 | 8.91065 | 37431 ft | 420 kts | 350° |
| 2026-04-29 13:36 | 47.16352 | 8.90665 | 37710 ft | 419 kts | 351° |
| 2026-04-29 13:37 | 47.19255 | 8.90264 | 37933 ft | 419 kts | 351° |
| 2026-04-29 13:37 | 47.22156 | 8.89862 | 38102 ft | 419 kts | 351° |
| 2026-04-29 13:37 | 47.28012 | 8.89162 | 38121 ft | 426 kts | 356° |
| 2026-04-29 13:38 | 47.33914 | 8.90378 | 38141 ft | 430 kts | 8° |
| 2026-04-29 13:38 | 47.39743 | 8.92380 | 38112 ft | 429 kts | 8° |
| 2026-04-29 13:39 | 47.45544 | 8.94366 | 38138 ft | 427 kts | 8° |
| 2026-04-29 13:39 | 47.51341 | 8.96310 | 38129 ft | 427 kts | 8° |
| 2026-04-29 13:40 | 47.57137 | 8.98237 | 38127 ft | 427 kts | 7° |
| 2026-04-29 13:40 | 47.62943 | 9.00169 | 38122 ft | 428 kts | 8° |
| 2026-04-29 13:41 | 47.68760 | 9.02109 | 38130 ft | 430 kts | 8° |
| 2026-04-29 13:41 | 47.74597 | 9.04062 | 38130 ft | 430 kts | 8° |
| 2026-04-29 13:42 | 47.80449 | 9.06022 | 38126 ft | 431 kts | 6° |
| 2026-04-29 13:42 | 47.83355 | 9.06399 | 38131 ft | 421 kts | 351° |
| 2026-04-29 13:42 | 47.86222 | 9.05544 | 38116 ft | 412 kts | 334° |
| 2026-04-29 13:43 | 47.88727 | 9.03567 | 38140 ft | 407 kts | 322° |
| 2026-04-29 13:43 | 47.90923 | 9.00920 | 38161 ft | 405 kts | 315° |
| 2026-04-29 13:43 | 47.94892 | 8.94939 | 38142 ft | 406 kts | 313° |
| 2026-04-29 13:44 | 47.98859 | 8.88907 | 38138 ft | 408 kts | 314° |
| 2026-04-29 13:44 | 48.03080 | 8.83214 | 38150 ft | 410 kts | 317° |
| 2026-04-29 13:45 | 48.07408 | 8.77653 | 38155 ft | 411 kts | 317° |
| 2026-04-29 13:45 | 48.11730 | 8.72043 | 38159 ft | 412 kts | 317° |
| 2026-04-29 13:46 | 48.16052 | 8.66379 | 38159 ft | 413 kts | 317° |
| 2026-04-29 13:46 | 48.20375 | 8.60695 | 38152 ft | 414 kts | 317° |
| 2026-04-29 13:47 | 48.24705 | 8.54993 | 38133 ft | 414 kts | 317° |
| 2026-04-29 13:47 | 48.29026 | 8.49287 | 38152 ft | 414 kts | 317° |
| 2026-04-29 13:48 | 48.33340 | 8.43577 | 38150 ft | 413 kts | 317° |
| 2026-04-29 13:48 | 48.37655 | 8.37851 | 38158 ft | 413 kts | 318° |
| 2026-04-29 13:49 | 48.41957 | 8.32131 | 38159 ft | 412 kts | 318° |
| 2026-04-29 13:49 | 48.46250 | 8.26409 | 38149 ft | 412 kts | 318° |
| 2026-04-29 13:50 | 48.50541 | 8.20677 | 38150 ft | 412 kts | 318° |
| 2026-04-29 13:50 | 48.54822 | 8.14944 | 38167 ft | 412 kts | 318° |
| 2026-04-29 13:51 | 48.59075 | 8.09234 | 38176 ft | 412 kts | 317° |
| 2026-04-29 13:51 | 48.63359 | 8.03469 | 38181 ft | 413 kts | 317° |
| 2026-04-29 13:52 | 48.67648 | 7.97685 | 38184 ft | 413 kts | 317° |
| 2026-04-29 13:52 | 48.71935 | 7.91890 | 38178 ft | 414 kts | 317° |
| 2026-04-29 13:53 | 48.76225 | 7.86078 | 38163 ft | 414 kts | 317° |
| 2026-04-29 13:53 | 48.80545 | 7.80211 | 38180 ft | 414 kts | 317° |
| 2026-04-29 13:54 | 48.84805 | 7.74408 | 38173 ft | 415 kts | 318° |
| 2026-04-29 13:54 | 48.89092 | 7.68557 | 38178 ft | 415 kts | 318° |
| 2026-04-29 13:55 | 48.93385 | 7.62683 | 38178 ft | 415 kts | 318° |
| 2026-04-29 13:55 | 48.97678 | 7.56794 | 38189 ft | 416 kts | 318° |
| 2026-04-29 13:56 | 49.01973 | 7.50889 | 38184 ft | 416 kts | 318° |
| 2026-04-29 13:56 | 49.06260 | 7.44981 | 38195 ft | 416 kts | 318° |
| 2026-04-29 13:57 | 49.10550 | 7.39054 | 38204 ft | 416 kts | 318° |
| 2026-04-29 13:57 | 49.14143 | 7.34078 | 38213 ft | 417 kts | 318° |
| 2026-04-29 13:58 | 49.19141 | 7.27141 | 38213 ft | 418 kts | 318° |
| 2026-04-29 13:58 | 49.23451 | 7.21144 | 38197 ft | 419 kts | 318° |
| 2026-04-29 13:59 | 49.27764 | 7.15127 | 38200 ft | 420 kts | 318° |
| 2026-04-29 13:59 | 49.32080 | 7.09089 | 38189 ft | 420 kts | 318° |
| 2026-04-29 14:00 | 49.36397 | 7.03034 | 38195 ft | 421 kts | 318° |
| 2026-04-29 14:00 | 49.40717 | 6.96964 | 38206 ft | 421 kts | 318° |
| 2026-04-29 14:01 | 49.44336 | 6.91865 | 38194 ft | 422 kts | 318° |
| 2026-04-29 14:01 | 49.48628 | 6.85806 | 38204 ft | 422 kts | 318° |
| 2026-04-29 14:02 | 49.50790 | 6.82747 | 38101 ft | 423 kts | 318° |
| 2026-04-29 14:02 | 49.52983 | 6.79639 | 37798 ft | 423 kts | 318° |
| 2026-04-29 14:02 | 49.55139 | 6.76580 | 37522 ft | 419 kts | 319° |
| 2026-04-29 14:02 | 49.57243 | 6.73592 | 37231 ft | 416 kts | 320° |
| 2026-04-29 14:03 | 49.59377 | 6.70560 | 36974 ft | 418 kts | 319° |
| 2026-04-29 14:03 | 49.61545 | 6.67474 | 36714 ft | 420 kts | 320° |
| 2026-04-29 14:03 | 49.63692 | 6.64414 | 36463 ft | 421 kts | 319° |
| 2026-04-29 14:03 | 49.65819 | 6.61378 | 36215 ft | 422 kts | 320° |
| 2026-04-29 14:04 | 49.67974 | 6.58294 | 35972 ft | 423 kts | 319° |
| 2026-04-29 14:04 | 49.69909 | 6.54913 | 35703 ft | 419 kts | 308° |
| 2026-04-29 14:04 | 49.71438 | 6.51080 | 35302 ft | 418 kts | 303° |
| 2026-04-29 14:04 | 49.72903 | 6.47198 | 34835 ft | 418 kts | 303° |
| 2026-04-29 14:05 | 49.74366 | 6.43320 | 34345 ft | 418 kts | 303° |
| 2026-04-29 14:05 | 49.75837 | 6.39434 | 33838 ft | 418 kts | 303° |
| 2026-04-29 14:05 | 49.77308 | 6.35565 | 33361 ft | 416 kts | 304° |
| 2026-04-29 14:05 | 49.78780 | 6.31703 | 32750 ft | 418 kts | 304° |
| 2026-04-29 14:06 | 49.80264 | 6.27820 | 32175 ft | 420 kts | 304° |
| 2026-04-29 14:06 | 49.81751 | 6.23927 | 31664 ft | 420 kts | 305° |
| 2026-04-29 14:06 | 49.83233 | 6.20045 | 31251 ft | 418 kts | 305° |
| 2026-04-29 14:06 | 49.84704 | 6.16182 | 30888 ft | 415 kts | 305° |
| 2026-04-29 14:07 | 49.86166 | 6.12340 | 30509 ft | 412 kts | 305° |
| 2026-04-29 14:07 | 49.87618 | 6.08517 | 30080 ft | 411 kts | 305° |
| 2026-04-29 14:07 | 49.89068 | 6.04701 | 29378 ft | 413 kts | 305° |
| 2026-04-29 14:07 | 49.90555 | 6.00792 | 28118 ft | 430 kts | 305° |
| 2026-04-29 14:08 | 49.92087 | 5.96758 | 27273 ft | 436 kts | 304° |
| 2026-04-29 14:08 | 49.93614 | 5.92713 | 26794 ft | 432 kts | 304° |
| 2026-04-29 14:08 | 49.95119 | 5.88714 | 26377 ft | 426 kts | 304° |
| 2026-04-29 14:08 | 49.96605 | 5.84758 | 25912 ft | 422 kts | 304° |
| 2026-04-29 14:09 | 49.98078 | 5.80835 | 25415 ft | 419 kts | 304° |
| 2026-04-29 14:09 | 49.99541 | 5.76937 | 24949 ft | 416 kts | 304° |
| 2026-04-29 14:09 | 50.00993 | 5.73061 | 24511 ft | 413 kts | 304° |
| 2026-04-29 14:09 | 50.02431 | 5.69219 | 24083 ft | 410 kts | 304° |
| 2026-04-29 14:10 | 50.03859 | 5.65401 | 23613 ft | 407 kts | 303° |
| 2026-04-29 14:10 | 50.05272 | 5.61614 | 23107 ft | 403 kts | 303° |
| 2026-04-29 14:10 | 50.06674 | 5.57853 | 22641 ft | 399 kts | 303° |
| 2026-04-29 14:10 | 50.08057 | 5.54135 | 22226 ft | 395 kts | 303° |
| 2026-04-29 14:11 | 50.09425 | 5.50455 | 21760 ft | 391 kts | 303° |
| 2026-04-29 14:11 | 50.10783 | 5.46797 | 21245 ft | 389 kts | 303° |
| 2026-04-29 14:11 | 50.12131 | 5.43160 | 20729 ft | 385 kts | 303° |
| 2026-04-29 14:11 | 50.13461 | 5.39565 | 20112 ft | 381 kts | 303° |
| 2026-04-29 14:12 | 50.14779 | 5.36000 | 19437 ft | 377 kts | 303° |
| 2026-04-29 14:12 | 50.16014 | 5.32414 | 18743 ft | 376 kts | 298° |
| 2026-04-29 14:12 | 50.16954 | 5.28611 | 17989 ft | 375 kts | 290° |
| 2026-04-29 14:12 | 50.17671 | 5.24719 | 17262 ft | 372 kts | 288° |
| 2026-04-29 14:13 | 50.18338 | 5.20839 | 16534 ft | 368 kts | 288° |
| 2026-04-29 14:13 | 50.18993 | 5.16998 | 15830 ft | 365 kts | 287° |
| 2026-04-29 14:13 | 50.19645 | 5.13185 | 15105 ft | 363 kts | 287° |
| 2026-04-29 14:13 | 50.20297 | 5.09392 | 14412 ft | 360 kts | 287° |
| 2026-04-29 14:14 | 50.20951 | 5.05630 | 13696 ft | 358 kts | 287° |
| 2026-04-29 14:14 | 50.21605 | 5.01900 | 12968 ft | 355 kts | 287° |
| 2026-04-29 14:14 | 50.22259 | 4.98193 | 12223 ft | 353 kts | 287° |
| 2026-04-29 14:14 | 50.22910 | 4.94534 | 11834 ft | 342 kts | 287° |
| 2026-04-29 14:15 | 50.23532 | 4.91060 | 11707 ft | 323 kts | 288° |
| 2026-04-29 14:15 | 50.24123 | 4.87743 | 11466 ft | 311 kts | 287° |
| 2026-04-29 14:15 | 50.24700 | 4.84512 | 10982 ft | 308 kts | 287° |
| 2026-04-29 14:15 | 50.25280 | 4.81313 | 10594 ft | 302 kts | 287° |
| 2026-04-29 14:16 | 50.25842 | 4.78247 | 10508 ft | 285 kts | 287° |
| 2026-04-29 14:16 | 50.26378 | 4.75326 | 10121 ft | 278 kts | 288° |
| 2026-04-29 14:16 | 50.26913 | 4.72398 | 9423 ft | 280 kts | 287° |
| 2026-04-29 14:16 | 50.27446 | 4.69490 | 8731 ft | 283 kts | 287° |
| 2026-04-29 14:17 | 50.27987 | 4.66568 | 8260 ft | 277 kts | 287° |
| 2026-04-29 14:17 | 50.28524 | 4.63707 | 7726 ft | 274 kts | 287° |
| 2026-04-29 14:17 | 50.29074 | 4.60827 | 7138 ft | 273 kts | 287° |
| 2026-04-29 14:17 | 50.29628 | 4.57946 | 6446 ft | 279 kts | 287° |
| 2026-04-29 14:18 | 50.30188 | 4.55079 | 5869 ft | 279 kts | 287° |
| 2026-04-29 14:18 | 50.30757 | 4.52207 | 5400 ft | 275 kts | 287° |
| 2026-04-29 14:18 | 50.31322 | 4.49373 | 4935 ft | 270 kts | 287° |
| 2026-04-29 14:18 | 50.31877 | 4.46583 | 4395 ft | 270 kts | 288° |
| 2026-04-29 14:19 | 50.32408 | 4.43817 | 4245 ft | 258 kts | 287° |
| 2026-04-29 14:19 | 50.32907 | 4.41190 | 4132 ft | 246 kts | 288° |
| 2026-04-29 14:19 | 50.33371 | 4.38652 | 3893 ft | 240 kts | 288° |
| 2026-04-29 14:19 | 50.33803 | 4.36139 | 3642 ft | 239 kts | 287° |
| 2026-04-29 14:20 | 50.34222 | 4.33636 | 3369 ft | 236 kts | 287° |
| 2026-04-29 14:20 | 50.34637 | 4.31159 | 3154 ft | 233 kts | 287° |
| 2026-04-29 14:20 | 50.35066 | 4.28777 | 3036 ft | 221 kts | 296° |
| 2026-04-29 14:20 | 50.35990 | 4.27085 | 2855 ft | 194 kts | 345° |
| 2026-04-29 14:21 | 50.37190 | 4.26884 | 2764 ft | 164 kts | 15° |
| 2026-04-29 14:21 | 50.38317 | 4.27225 | 2637 ft | 165 kts | 26° |
| 2026-04-29 14:21 | 50.39310 | 4.28010 | 2528 ft | 157 kts | 39° |
| 2026-04-29 14:21 | 50.40208 | 4.28930 | 2488 ft | 153 kts | 40° |
| 2026-04-29 14:22 | 50.41089 | 4.29844 | 2517 ft | 151 kts | 41° |
| 2026-04-29 14:22 | 50.41806 | 4.31023 | 2407 ft | 153 kts | 66° |
| 2026-04-29 14:22 | 50.42233 | 4.32552 | 2207 ft | 153 kts | 66° |
| 2026-04-29 14:22 | 50.42687 | 4.34048 | 1993 ft | 150 kts | 66° |
| 2026-04-29 14:23 | 50.43126 | 4.35512 | 1780 ft | 146 kts | 67° |
| 2026-04-29 14:23 | 50.43545 | 4.36929 | 1627 ft | 144 kts | 68° |
| 2026-04-29 14:23 | 50.43954 | 4.38320 | 1477 ft | 133 kts | 67° |
| 2026-04-29 14:23 | 50.44329 | 4.39600 | 1292 ft | 129 kts | 65° |
| 2026-04-29 14:24 | 50.44703 | 4.40879 | 1089 ft | 131 kts | 65° |
| 2026-04-29 14:24 | 50.45081 | 4.42181 | 911 ft | 132 kts | 63° |
| 2026-04-29 14:24 | 50.45461 | 4.43485 | 720 ft | 130 kts | 63° |
| 2026-04-29 14:24 | 50.45821 | 4.44728 | 616 ft | 122 kts | 63° |
| 2026-04-29 14:25 | 50.46125 | 4.45770 | 595 ft | 78 kts | 65° |
| 2026-04-29 14:25 | 50.46299 | 4.46365 | 589 ft | 50 kts | 65° |
| 2026-04-29 14:25 | 50.46414 | 4.46763 | 592 ft | 24 kts | 66° |
| 2026-04-29 14:25 | 50.46460 | 4.46883 | 593 ft | 9 kts | 33° |
| 2026-04-29 14:26 | 50.46522 | 4.46886 | 593 ft | 9 kts | 341° |
| 2026-04-29 14:26 | 50.46581 | 4.46847 | 593 ft | 9 kts | 336° |
| 2026-04-29 14:26 | 50.46639 | 4.46802 | 590 ft | 8 kts | 340° |
| 2026-04-29 14:26 | 50.46689 | 4.46835 | 589 ft | 8 kts | 59° |
| 2026-04-29 14:27 | 50.46713 | 4.46919 | 588 ft | 8 kts | 66° |
| 2026-04-29 14:27 | 50.46739 | 4.47005 | 587 ft | 9 kts | 65° |
| 2026-04-29 14:27 | 50.46764 | 4.47091 | 587 ft | 9 kts | 66° |
| 2026-04-29 14:28 | 50.46856 | 4.47110 | 584 ft | 11 kts | 336° |
| 2026-04-29 14:28 | 50.46871 | 4.47098 | 584 ft | 0 kts | 334° |